sensor_id;sensor_type;location;lat;lon;timestamp;pressure;altitude;pressure_sealevel;temperature;humidity
46506;BME280;32220;49.808;9.968;2023-02-13T00:00:53;101009.66;;;5.31;85.37
46506;BME280;32220;49.808;9.968;2023-02-13T00:03:21;100993.09;;;5.17;85.28
46506;BME280;32220;49.808;9.968;2023-02-13T00:05:49;101008.84;;;5.18;85.64
46506;BME280;32220;49.808;9.968;2023-02-13T00:08:17;101001.88;;;5.11;86.02
46506;BME280;32220;49.808;9.968;2023-02-13T00:10:47;101005.44;;;5.05;85.71
46506;BME280;32220;49.808;9.968;2023-02-13T00:13:15;101001.06;;;5.00;85.85
46506;BME280;32220;49.808;9.968;2023-02-13T08:56:33;101087.75;;;2.93;100.00
46506;BME280;32220;49.808;9.968;2023-02-13T08:59:01;101079.16;;;3.40;100.00
46506;BME280;32220;49.808;9.968;2023-02-13T09:01:29;101073.97;;;3.91;100.00
46506;BME280;32220;49.808;9.968;2023-02-13T09:03:56;101091.38;;;4.50;100.00
46506;BME280;32220;49.808;9.968;2023-02-13T09:06:24;101098.28;;;4.85;100.00
46506;BME280;32220;49.808;9.968;2023-02-13T09:08:53;101096.44;;;5.08;100.00
46506;BME280;32220;49.808;9.968;2023-02-13T09:11:20;101099.81;;;5.33;97.58
46506;BME280;32220;49.808;9.968;2023-02-13T09:13:52;101101.47;;;5.55;95.54
46506;BME280;32220;49.808;9.968;2023-02-13T09:16:20;101107.53;;;5.68;90.99
46506;BME280;32220;49.808;9.968;2023-02-13T09:18:48;101109.16;;;5.81;90.61
46506;BME280;32220;49.808;9.968;2023-02-13T09:21:17;101114.31;;;5.99;90.04
46506;BME280;32220;49.808;9.968;2023-02-13T09:23:45;101108.88;;;6.21;89.01
46506;BME280;32220;49.808;9.968;2023-02-13T09:26:16;101097.44;;;6.28;87.76
46506;BME280;32220;49.808;9.968;2023-02-13T09:28:44;101115.63;;;6.52;85.62
46506;BME280;32220;49.808;9.968;2023-02-13T09:31:15;101110.25;;;6.63;85.27
46506;BME280;32220;49.808;9.968;2023-02-13T09:33:44;101117.13;;;6.74;84.01
46506;BME280;32220;49.808;9.968;2023-02-13T09:36:15;101122.25;;;6.87;83.81
46506;BME280;32220;49.808;9.968;2023-02-13T09:38:44;101128.31;;;6.93;82.80
46506;BME280;32220;49.808;9.968;2023-02-13T09:41:14;101127.34;;;7.03;83.03
46506;BME280;32220;49.808;9.968;2023-02-13T09:43:47;101107.09;;;7.05;82.95
46506;BME280;32220;49.808;9.968;2023-02-13T09:46:20;101127.06;;;7.26;81.32
46506;BME280;32220;49.808;9.968;2023-02-13T09:48:52;101130.56;;;7.28;80.53
46506;BME280;32220;49.808;9.968;2023-02-13T09:51:21;101109.53;;;7.24;80.86
46506;BME280;32220;49.808;9.968;2023-02-13T09:53:52;101119.91;;;7.34;79.68
46506;BME280;32220;49.808;9.968;2023-02-13T09:56:31;101117.94;;;7.51;79.68
46506;BME280;32220;49.808;9.968;2023-02-13T09:59:13;101123.13;;;7.56;78.07
46506;BME280;32220;49.808;9.968;2023-02-13T10:01:46;101137.16;;;7.60;77.41
46506;BME280;32220;49.808;9.968;2023-02-13T10:04:28;101131.94;;;7.55;76.65
46506;BME280;32220;49.808;9.968;2023-02-13T10:07:09;101132.22;;;7.35;75.81
46506;BME280;32220;49.808;9.968;2023-02-13T10:09:48;101131.34;;;7.33;75.86
46506;BME280;32220;49.808;9.968;2023-02-13T10:12:29;101135.66;;;7.40;75.67
46506;BME280;32220;49.808;9.968;2023-02-13T10:15:16;101131.09;;;7.53;76.32
46506;BME280;32220;49.808;9.968;2023-02-13T10:17:53;101128.03;;;7.82;76.39
46506;BME280;32220;49.808;9.968;2023-02-13T10:20:28;101130.09;;;8.17;76.24
46506;BME280;32220;49.808;9.968;2023-02-13T10:22:59;101132.44;;;8.40;74.03
46506;BME280;32220;49.808;9.968;2023-02-13T10:25:45;101135.00;;;8.41;73.15
46506;BME280;32220;49.808;9.968;2023-02-13T10:28:18;101135.66;;;8.54;73.34
46506;BME280;32220;49.808;9.968;2023-02-13T10:30:52;101147.94;;;8.58;71.61
46506;BME280;32220;49.808;9.968;2023-02-13T10:33:27;101143.53;;;8.57;71.27
46506;BME280;32220;49.808;9.968;2023-02-13T10:36:00;101134.88;;;8.50;71.07
46506;BME280;32220;49.808;9.968;2023-02-13T10:38:30;101142.78;;;8.52;71.14
46506;BME280;32220;49.808;9.968;2023-02-13T10:41:21;101120.00;;;8.45;71.10
46506;BME280;32220;49.808;9.968;2023-02-13T10:43:57;101130.50;;;8.49;71.11
46506;BME280;32220;49.808;9.968;2023-02-13T10:46:35;101118.25;;;8.44;71.08
46506;BME280;32220;49.808;9.968;2023-02-13T10:49:29;101126.84;;;8.55;70.71
46506;BME280;32220;49.808;9.968;2023-02-13T10:52:06;101132.03;;;8.61;71.43
46506;BME280;32220;49.808;9.968;2023-02-13T10:55:01;101103.88;;;8.60;70.81
46506;BME280;32220;49.808;9.968;2023-02-13T10:57:45;101121.94;;;8.83;70.18
46506;BME280;32220;49.808;9.968;2023-02-13T11:00:17;101114.00;;;8.83;69.35
46506;BME280;32220;49.808;9.968;2023-02-13T11:02:49;101120.88;;;8.91;69.63
46506;BME280;32220;49.808;9.968;2023-02-13T11:05:20;101115.28;;;9.07;69.72
46506;BME280;32220;49.808;9.968;2023-02-13T11:07:49;101093.31;;;9.03;70.01
46506;BME280;32220;49.808;9.968;2023-02-13T11:10:19;101111.44;;;9.23;69.64
46506;BME280;32220;49.808;9.968;2023-02-13T11:12:47;101113.06;;;9.28;69.09
46506;BME280;32220;49.808;9.968;2023-02-13T11:15:21;101115.78;;;9.27;68.30
46506;BME280;32220;49.808;9.968;2023-02-13T11:17:52;101109.53;;;9.28;68.52
46506;BME280;32220;49.808;9.968;2023-02-13T11:20:27;101093.50;;;9.37;69.00
46506;BME280;32220;49.808;9.968;2023-02-13T11:22:56;101101.84;;;9.57;68.71
46506;BME280;32220;49.808;9.968;2023-02-13T11:25:52;101093.75;;;9.65;68.81
46506;BME280;32220;49.808;9.968;2023-02-13T11:28:22;101100.88;;;9.63;67.27
46506;BME280;32220;49.808;9.968;2023-02-13T11:30:49;101103.31;;;9.70;67.00
46506;BME280;32220;49.808;9.968;2023-02-13T11:33:21;101103.84;;;9.86;67.38
46506;BME280;32220;49.808;9.968;2023-02-13T11:36:03;101098.69;;;9.80;67.06
46506;BME280;32220;49.808;9.968;2023-02-13T11:38:31;101114.34;;;9.89;66.69
46506;BME280;32220;49.808;9.968;2023-02-13T11:41:06;101116.19;;;9.86;66.85
46506;BME280;32220;49.808;9.968;2023-02-13T11:43:36;101092.66;;;9.75;67.27
46506;BME280;32220;49.808;9.968;2023-02-13T11:46:06;101095.47;;;10.03;67.83
46506;BME280;32220;49.808;9.968;2023-02-13T11:48:34;101083.31;;;10.31;66.99
46506;BME280;32220;49.808;9.968;2023-02-13T11:51:04;101096.50;;;10.67;66.21
46506;BME280;32220;49.808;9.968;2023-02-13T11:53:36;101098.66;;;10.85;65.76
46506;BME280;32220;49.808;9.968;2023-02-13T11:56:09;101089.75;;;10.88;65.47
46506;BME280;32220;49.808;9.968;2023-02-13T11:58:38;101098.47;;;10.91;64.43
46506;BME280;32220;49.808;9.968;2023-02-13T12:01:09;101105.16;;;11.04;64.51
46506;BME280;32220;49.808;9.968;2023-02-13T12:03:40;101098.03;;;11.37;64.59
46506;BME280;32220;49.808;9.968;2023-02-13T12:06:13;101089.63;;;11.51;63.44
46506;BME280;32220;49.808;9.968;2023-02-13T12:08:43;101098.56;;;11.48;61.82
46506;BME280;32220;49.808;9.968;2023-02-13T12:11:20;101084.50;;;11.15;62.72
46506;BME280;32220;49.808;9.968;2023-02-13T12:13:50;101079.34;;;11.11;63.19
46506;BME280;32220;49.808;9.968;2023-02-13T12:16:25;101093.75;;;11.32;63.55
46506;BME280;32220;49.808;9.968;2023-02-13T12:18:58;101079.38;;;11.39;62.21
46506;BME280;32220;49.808;9.968;2023-02-13T12:21:42;101097.78;;;11.74;61.61
46506;BME280;32220;49.808;9.968;2023-02-13T12:24:21;101098.19;;;12.16;61.70
46506;BME280;32220;49.808;9.968;2023-02-13T12:27:02;101077.44;;;12.52;61.62
46506;BME280;32220;49.808;9.968;2023-02-13T12:29:54;101092.44;;;12.80;60.86
46506;BME280;32220;49.808;9.968;2023-02-13T12:32:29;101084.94;;;12.91;59.45
46506;BME280;32220;49.808;9.968;2023-02-13T12:35:23;101077.31;;;13.74;58.22
46506;BME280;32220;49.808;9.968;2023-02-13T12:37:58;101093.53;;;15.89;55.36
46506;BME280;32220;49.808;9.968;2023-02-13T12:46:51;101167.47;;;26.23;35.59
46506;BME280;32220;49.808;9.968;2023-02-13T12:49:33;101151.06;;;26.34;34.07
46506;BME280;32220;49.808;9.968;2023-02-13T12:52:19;101151.06;;;26.72;32.33
46506;BME280;32220;49.808;9.968;2023-02-13T12:55:05;101167.41;;;27.58;30.93
46506;BME280;32220;49.808;9.968;2023-02-13T12:57:47;101162.34;;;28.45;29.02
46506;BME280;32220;49.808;9.968;2023-02-13T13:00:28;101140.63;;;28.88;28.54
46506;BME280;32220;49.808;9.968;2023-02-13T13:03:31;101152.97;;;29.44;27.47
46506;BME280;32220;49.808;9.968;2023-02-13T13:06:12;101158.78;;;29.75;26.78
46506;BME280;32220;49.808;9.968;2023-02-13T13:08:58;101149.00;;;29.64;26.36
46506;BME280;32220;49.808;9.968;2023-02-13T13:11:44;101131.19;;;29.52;27.14
46506;BME280;32220;49.808;9.968;2023-02-13T13:14:21;101141.88;;;28.76;26.84
46506;BME280;32220;49.808;9.968;2023-02-13T13:16:59;101111.63;;;26.30;28.63
46506;BME280;32220;49.808;9.968;2023-02-13T13:19:35;101126.84;;;25.31;29.58
46506;BME280;32220;49.808;9.968;2023-02-13T13:22:09;101110.84;;;24.87;29.77
46506;BME280;32220;49.808;9.968;2023-02-13T13:24:52;101096.03;;;24.91;30.16
46506;BME280;32220;49.808;9.968;2023-02-13T13:27:26;101111.50;;;25.51;29.32
46506;BME280;32220;49.808;9.968;2023-02-13T13:29:57;101112.53;;;25.60;28.67
46506;BME280;32220;49.808;9.968;2023-02-13T13:32:27;101089.25;;;24.96;29.40
46506;BME280;32220;49.808;9.968;2023-02-13T13:34:57;101092.81;;;23.69;31.45
46506;BME280;32220;49.808;9.968;2023-02-13T13:37:29;101074.84;;;22.20;33.28
46506;BME280;32220;49.808;9.968;2023-02-13T13:40:02;101061.44;;;20.96;35.10
46506;BME280;32220;49.808;9.968;2023-02-13T13:42:40;101052.19;;;19.96;36.77
46506;BME280;32220;49.808;9.968;2023-02-13T13:45:23;101036.22;;;19.11;37.92
46506;BME280;32220;49.808;9.968;2023-02-13T13:48:08;101014.03;;;18.20;38.98
46506;BME280;32220;49.808;9.968;2023-02-13T13:50:44;101014.91;;;17.91;39.76
46506;BME280;32220;49.808;9.968;2023-02-13T13:53:14;101015.31;;;17.83;40.40
46506;BME280;32220;49.808;9.968;2023-02-13T13:56:02;100990.72;;;17.30;41.66
46506;BME280;32220;49.808;9.968;2023-02-13T13:58:39;101014.69;;;17.94;41.39
46506;BME280;32220;49.808;9.968;2023-02-13T14:01:19;101017.00;;;19.17;40.17
46506;BME280;32220;49.808;9.968;2023-02-13T14:03:49;101026.22;;;20.34;38.25
46506;BME280;32220;49.808;9.968;2023-02-13T14:06:19;101030.59;;;21.26;36.55
46506;BME280;32220;49.808;9.968;2023-02-13T14:08:59;101033.78;;;22.04;36.34
46506;BME280;32220;49.808;9.968;2023-02-13T14:11:31;101036.41;;;22.51;35.06
46506;BME280;32220;49.808;9.968;2023-02-13T14:14:04;101032.34;;;23.03;34.76
46506;BME280;32220;49.808;9.968;2023-02-13T14:16:49;101039.31;;;23.50;33.95
46506;BME280;32220;49.808;9.968;2023-02-13T14:19:25;101049.28;;;23.72;33.09
46506;BME280;32220;49.808;9.968;2023-02-13T14:22:26;101044.28;;;23.88;33.05
46506;BME280;32220;49.808;9.968;2023-02-13T14:25:00;101040.66;;;24.10;33.06
46506;BME280;32220;49.808;9.968;2023-02-13T14:27:30;101056.75;;;24.12;31.45
46506;BME280;32220;49.808;9.968;2023-02-13T14:30:00;101054.38;;;23.97;31.55
46506;BME280;32220;49.808;9.968;2023-02-13T14:32:30;101036.44;;;23.74;32.10
46506;BME280;32220;49.808;9.968;2023-02-13T14:35:02;101022.38;;;23.59;32.27
46506;BME280;32220;49.808;9.968;2023-02-13T14:37:34;101042.53;;;23.55;32.25
46506;BME280;32220;49.808;9.968;2023-02-13T14:43:18;101028.38;;;23.41;32.93
46506;BME280;32220;49.808;9.968;2023-02-13T14:45:52;101014.38;;;23.24;32.92
46506;BME280;32220;49.808;9.968;2023-02-13T14:48:26;101020.88;;;22.88;32.80
46506;BME280;32220;49.808;9.968;2023-02-13T14:50:59;101004.66;;;21.72;34.14
46506;BME280;32220;49.808;9.968;2023-02-13T14:53:29;100996.22;;;20.40;35.92
46506;BME280;32220;49.808;9.968;2023-02-13T14:56:04;100975.53;;;19.35;37.71
46506;BME280;32220;49.808;9.968;2023-02-13T14:58:35;100984.75;;;18.46;39.29
46506;BME280;32220;49.808;9.968;2023-02-13T15:01:20;100970.28;;;17.58;40.94
46506;BME280;32220;49.808;9.968;2023-02-13T15:03:53;100970.50;;;16.93;42.44
46506;BME280;32220;49.808;9.968;2023-02-13T15:06:27;100966.25;;;16.38;43.50
46506;BME280;32220;49.808;9.968;2023-02-13T15:08:59;100936.34;;;15.80;44.44
46506;BME280;32220;49.808;9.968;2023-02-13T15:11:36;100945.72;;;15.53;45.50
46506;BME280;32220;49.808;9.968;2023-02-13T15:14:22;100931.78;;;15.10;46.76
46506;BME280;32220;49.808;9.968;2023-02-13T15:16:55;100893.59;;;14.53;47.80
46506;BME280;32220;49.808;9.968;2023-02-13T15:19:24;100909.00;;;14.26;48.15
46506;BME280;32220;49.808;9.968;2023-02-13T15:21:56;100921.75;;;13.99;48.96
46506;BME280;32220;49.808;9.968;2023-02-13T15:24:26;100903.75;;;13.64;49.65
46506;BME280;32220;49.808;9.968;2023-02-13T15:26:59;100916.91;;;13.47;50.60
46506;BME280;32220;49.808;9.968;2023-02-13T15:29:28;100910.06;;;13.19;51.84
46506;BME280;32220;49.808;9.968;2023-02-13T15:31:58;100882.28;;;12.81;52.72
46506;BME280;32220;49.808;9.968;2023-02-13T15:34:27;100893.41;;;12.69;53.15
46506;BME280;32220;49.808;9.968;2023-02-13T15:36:57;100898.78;;;12.44;54.75
46506;BME280;32220;49.808;9.968;2023-02-13T15:39:27;100891.78;;;12.18;54.19
46506;BME280;32220;49.808;9.968;2023-02-13T15:41:57;100896.78;;;12.03;54.26
46506;BME280;32220;49.808;9.968;2023-02-13T15:44:28;100897.31;;;11.87;55.65
46506;BME280;32220;49.808;9.968;2023-02-13T15:47:03;100887.59;;;11.62;57.39
46506;BME280;32220;49.808;9.968;2023-02-13T15:49:36;100892.66;;;11.43;58.33
46506;BME280;32220;49.808;9.968;2023-02-13T15:52:07;100866.34;;;11.10;59.87
46506;BME280;32220;49.808;9.968;2023-02-13T15:54:35;100881.47;;;11.07;60.87
46506;BME280;32220;49.808;9.968;2023-02-13T15:57:05;100888.31;;;10.86;60.22
46506;BME280;32220;49.808;9.968;2023-02-13T15:59:34;100884.28;;;10.74;61.48
46506;BME280;32220;49.808;9.968;2023-02-13T16:02:11;100870.75;;;10.54;61.59
46506;BME280;32220;49.808;9.968;2023-02-13T16:04:41;100860.00;;;10.29;61.86
46506;BME280;32220;49.808;9.968;2023-02-13T16:07:10;100872.63;;;10.21;63.16
46506;BME280;32220;49.808;9.968;2023-02-13T16:09:38;100877.25;;;10.13;63.42
46506;BME280;32220;49.808;9.968;2023-02-13T16:12:17;100878.66;;;9.94;62.71
46506;BME280;32220;49.808;9.968;2023-02-13T16:14:48;100891.28;;;9.84;62.57
46506;BME280;32220;49.808;9.968;2023-02-13T16:17:26;100872.53;;;9.59;62.04
46506;BME280;32220;49.808;9.968;2023-02-13T16:19:58;100876.34;;;9.49;61.65
46506;BME280;32220;49.808;9.968;2023-02-13T16:22:32;100870.59;;;9.32;62.24
46506;BME280;32220;49.808;9.968;2023-02-13T16:25:23;100893.56;;;9.30;62.36
46506;BME280;32220;49.808;9.968;2023-02-13T16:27:53;100892.16;;;9.15;62.70
46506;BME280;32220;49.808;9.968;2023-02-13T16:30:33;100894.22;;;9.02;62.75
46506;BME280;32220;49.808;9.968;2023-02-13T16:33:20;100885.75;;;8.90;63.93
46506;BME280;32220;49.808;9.968;2023-02-13T16:35:50;100883.41;;;8.76;63.22
46506;BME280;32220;49.808;9.968;2023-02-13T16:38:28;100899.53;;;8.64;62.98
46506;BME280;32220;49.808;9.968;2023-02-13T16:40:58;100882.47;;;8.39;62.94
46506;BME280;32220;49.808;9.968;2023-02-13T16:43:40;100894.84;;;8.37;63.07
46506;BME280;32220;49.808;9.968;2023-02-13T16:46:28;100895.00;;;8.27;63.32
46506;BME280;32220;49.808;9.968;2023-02-13T16:51:50;100896.50;;;7.96;63.98
46506;BME280;32220;49.808;9.968;2023-02-13T16:54:26;100906.28;;;7.91;63.80
46506;BME280;32220;49.808;9.968;2023-02-13T16:56:56;100894.28;;;7.75;63.69
46506;BME280;32220;49.808;9.968;2023-02-13T16:59:29;100912.81;;;7.70;64.12
46506;BME280;32220;49.808;9.968;2023-02-13T17:02:14;100909.47;;;7.61;64.11
46506;BME280;32220;49.808;9.968;2023-02-13T17:04:47;100891.41;;;7.39;64.11
46506;BME280;32220;49.808;9.968;2023-02-13T17:07:18;100901.28;;;7.27;63.62
46506;BME280;32220;49.808;9.968;2023-02-13T17:09:51;100910.06;;;7.26;63.90
46506;BME280;32220;49.808;9.968;2023-02-13T17:12:20;100881.53;;;6.97;63.81
46506;BME280;32220;49.808;9.968;2023-02-13T17:14:48;100887.69;;;6.97;63.70
46506;BME280;32220;49.808;9.968;2023-02-13T17:17:18;100912.22;;;7.01;64.43
46506;BME280;32220;49.808;9.968;2023-02-13T17:19:48;100906.31;;;6.83;64.38
46506;BME280;32220;49.808;9.968;2023-02-13T17:22:26;100890.72;;;6.70;65.54
46506;BME280;32220;49.808;9.968;2023-02-13T17:24:55;100915.25;;;6.72;65.02
46506;BME280;32220;49.808;9.968;2023-02-13T17:27:23;100909.41;;;6.53;65.17
46506;BME280;32220;49.808;9.968;2023-02-13T17:29:51;100908.59;;;6.45;65.43
46506;BME280;32220;49.808;9.968;2023-02-13T17:32:21;100917.47;;;6.38;65.58
46506;BME280;32220;49.808;9.968;2023-02-13T17:34:51;100928.81;;;6.43;65.52
46506;BME280;32220;49.808;9.968;2023-02-13T17:37:21;100935.03;;;6.36;65.66
46506;BME280;32220;49.808;9.968;2023-02-13T17:39:50;100929.00;;;6.29;65.88
46506;BME280;32220;49.808;9.968;2023-02-13T17:42:21;100936.97;;;6.22;65.72
46506;BME280;32220;49.808;9.968;2023-02-13T17:44:49;100936.19;;;6.15;66.29
46506;BME280;32220;49.808;9.968;2023-02-13T17:47:18;100928.34;;;6.07;65.99
46506;BME280;32220;49.808;9.968;2023-02-13T17:49:46;100924.06;;;6.00;65.94
46506;BME280;32220;49.808;9.968;2023-02-13T17:52:18;100925.91;;;5.92;66.34
46506;BME280;32220;49.808;9.968;2023-02-13T17:54:46;100921.53;;;5.87;66.27
46506;BME280;32220;49.808;9.968;2023-02-13T17:57:15;100905.03;;;5.71;66.88
46506;BME280;32220;49.808;9.968;2023-02-13T17:59:45;100915.53;;;5.74;67.41
46506;BME280;32220;49.808;9.968;2023-02-13T18:02:15;100895.53;;;5.58;67.44
46506;BME280;32220;49.808;9.968;2023-02-13T18:04:44;100906.03;;;5.61;67.98
46506;BME280;32220;49.808;9.968;2023-02-13T18:07:14;100841.66;;;5.11;67.51
46506;BME280;32220;49.808;9.968;2023-02-13T18:09:43;100907.09;;;5.38;67.82
46506;BME280;32220;49.808;9.968;2023-02-13T18:12:19;100921.97;;;5.43;67.87
46506;BME280;32220;49.808;9.968;2023-02-13T18:14:48;100897.59;;;5.22;67.67
46506;BME280;32220;49.808;9.968;2023-02-13T18:17:17;100908.94;;;5.30;68.20
46506;BME280;32220;49.808;9.968;2023-02-13T18:19:45;100911.59;;;5.27;67.97
46506;BME280;32220;49.808;9.968;2023-02-13T18:22:13;100913.38;;;5.21;68.29
46506;BME280;32220;49.808;9.968;2023-02-13T18:24:42;100896.00;;;5.03;68.39
46506;BME280;32220;49.808;9.968;2023-02-13T18:27:10;100908.19;;;5.10;68.61
46506;BME280;32220;49.808;9.968;2023-02-13T18:29:39;100891.72;;;4.94;68.56
46506;BME280;32220;49.808;9.968;2023-02-13T18:32:08;100889.09;;;4.90;68.91
46506;BME280;32220;49.808;9.968;2023-02-13T18:34:38;100908.31;;;4.95;68.76
46506;BME280;32220;49.808;9.968;2023-02-13T18:37:06;100902.25;;;4.82;68.74
46506;BME280;32220;49.808;9.968;2023-02-13T18:39:34;100918.94;;;4.78;69.04
46506;BME280;32220;49.808;9.968;2023-02-13T18:42:04;100922.44;;;4.79;69.20
46506;BME280;32220;49.808;9.968;2023-02-13T18:44:31;100905.03;;;4.62;69.20
46506;BME280;32220;49.808;9.968;2023-02-13T18:47:00;100901.56;;;4.57;69.39
46506;BME280;32220;49.808;9.968;2023-02-13T18:49:27;100915.53;;;4.59;69.53
46506;BME280;32220;49.808;9.968;2023-02-13T18:51:55;100912.94;;;4.55;70.04
46506;BME280;32220;49.808;9.968;2023-02-13T18:54:23;100900.72;;;4.49;71.71
46506;BME280;32220;49.808;9.968;2023-02-13T18:56:51;100903.34;;;4.46;71.39
46506;BME280;32220;49.808;9.968;2023-02-13T18:59:20;100910.38;;;4.41;71.38
46506;BME280;32220;49.808;9.968;2023-02-13T19:01:49;100906.91;;;4.36;71.81
46506;BME280;32220;49.808;9.968;2023-02-13T19:04:17;100905.16;;;4.33;71.63
46506;BME280;32220;49.808;9.968;2023-02-13T19:06:45;100899.94;;;4.29;71.27
46506;BME280;32220;49.808;9.968;2023-02-13T19:09:13;100887.78;;;4.14;71.24
46506;BME280;32220;49.808;9.968;2023-02-13T19:11:40;100913.94;;;4.22;70.92
46506;BME280;32220;49.808;9.968;2023-02-13T19:14:11;100918.34;;;4.17;71.08
46506;BME280;32220;49.808;9.968;2023-02-13T19:16:41;100900.06;;;4.02;71.06
46506;BME280;32220;49.808;9.968;2023-02-13T19:19:09;100911.41;;;4.04;71.20
46506;BME280;32220;49.808;9.968;2023-02-13T19:21:38;100914.03;;;4.01;71.11
46506;BME280;32220;49.808;9.968;2023-02-13T19:24:07;100909.69;;;3.90;70.80
46506;BME280;32220;49.808;9.968;2023-02-13T19:26:36;100851.25;;;3.49;70.83
46506;BME280;32220;49.808;9.968;2023-02-13T19:29:03;100907.97;;;3.73;70.64
46506;BME280;32220;49.808;9.968;2023-02-13T19:31:32;100917.59;;;3.77;70.85
46506;BME280;32220;49.808;9.968;2023-02-13T19:34:02;100918.47;;;3.71;70.83
46506;BME280;32220;49.808;9.968;2023-02-13T19:36:31;100926.34;;;3.65;70.98
46506;BME280;32220;49.808;9.968;2023-02-13T19:39:00;100904.53;;;3.51;70.94
46506;BME280;32220;49.808;9.968;2023-02-13T19:41:29;100908.03;;;3.42;70.79
46506;BME280;32220;49.808;9.968;2023-02-13T19:43:58;100913.25;;;3.47;70.93
46506;BME280;32220;49.808;9.968;2023-02-13T19:46:27;100893.19;;;3.24;71.10
46506;BME280;32220;49.808;9.968;2023-02-13T19:48:56;100920.25;;;3.36;70.97
46506;BME280;32220;49.808;9.968;2023-02-13T19:51:27;100915.91;;;3.30;71.10
46506;BME280;32220;49.808;9.968;2023-02-13T19:53:57;100915.88;;;3.25;71.24
46506;BME280;32220;49.808;9.968;2023-02-13T19:56:26;100919.38;;;3.21;71.40
46506;BME280;32220;49.808;9.968;2023-02-13T19:58:55;100917.63;;;3.17;71.27
46506;BME280;32220;49.808;9.968;2023-02-13T20:01:27;100920.25;;;3.13;71.59
46506;BME280;32220;49.808;9.968;2023-02-13T20:03:55;100921.09;;;3.10;71.96
46506;BME280;32220;49.808;9.968;2023-02-13T20:06:26;100901.03;;;2.94;71.82
46506;BME280;32220;49.808;9.968;2023-02-13T20:08:58;100908.03;;;2.95;71.85
46506;BME280;32220;49.808;9.968;2023-02-13T20:11:26;100898.41;;;2.91;72.18
46506;BME280;32220;49.808;9.968;2023-02-13T20:13:55;100896.69;;;2.84;71.94
46506;BME280;32220;49.808;9.968;2023-02-13T20:16:26;100896.66;;;2.81;72.07
46506;BME280;32220;49.808;9.968;2023-02-13T20:18:59;100907.13;;;2.81;72.01
46506;BME280;32220;49.808;9.968;2023-02-13T20:21:32;100902.78;;;2.80;72.14
46506;BME280;32220;49.808;9.968;2023-02-13T20:24:03;100908.00;;;2.77;72.62
46506;BME280;32220;49.808;9.968;2023-02-13T20:26:31;100910.63;;;2.80;73.06
46506;BME280;32220;49.808;9.968;2023-02-13T20:29:00;100916.72;;;2.82;73.07
46506;BME280;32220;49.808;9.968;2023-02-13T20:31:28;100895.78;;;2.68;72.78
46506;BME280;32220;49.808;9.968;2023-02-13T20:33:58;100912.34;;;2.75;73.06
46506;BME280;32220;49.808;9.968;2023-02-13T20:36:29;100919.31;;;2.73;73.10
46506;BME280;32220;49.808;9.968;2023-02-13T20:39:00;100920.19;;;2.70;73.09
46506;BME280;32220;49.808;9.968;2023-02-13T20:41:30;100919.31;;;2.67;73.11
46506;BME280;32220;49.808;9.968;2023-02-13T20:44:00;100919.28;;;2.61;73.23
46506;BME280;32220;49.808;9.968;2023-02-13T20:46:29;100866.88;;;2.24;73.07
46506;BME280;32220;49.808;9.968;2023-02-13T20:48:57;100916.66;;;2.56;73.23
46506;BME280;32220;49.808;9.968;2023-02-13T20:51:25;100921.00;;;2.52;73.10
46506;BME280;32220;49.808;9.968;2023-02-13T20:53:53;100900.91;;;2.35;73.20
46506;BME280;32220;49.808;9.968;2023-02-13T20:56:27;100900.88;;;2.30;73.35
46506;BME280;32220;49.808;9.968;2023-02-13T20:58:57;100913.97;;;2.33;73.82
46506;BME280;32220;49.808;9.968;2023-02-13T21:01:27;100920.09;;;2.34;74.41
46506;BME280;32220;49.808;9.968;2023-02-13T21:03:56;100909.56;;;2.26;74.69
46506;BME280;32220;49.808;9.968;2023-02-13T21:06:29;100874.66;;;2.07;74.80
46506;BME280;32220;49.808;9.968;2023-02-13T21:08:57;100899.97;;;2.16;74.65
46506;BME280;32220;49.808;9.968;2023-02-13T21:11:27;100927.88;;;2.26;74.76
46506;BME280;32220;49.808;9.968;2023-02-13T21:13:56;100926.97;;;2.23;74.87
46506;BME280;32220;49.808;9.968;2023-02-13T21:16:26;100905.16;;;2.07;74.58
46506;BME280;32220;49.808;9.968;2023-02-13T21:18:56;100907.75;;;2.04;74.67
46506;BME280;32220;49.808;9.968;2023-02-13T21:21:26;100918.22;;;2.05;74.61
46506;BME280;32220;49.808;9.968;2023-02-13T21:23:55;100919.97;;;2.08;74.56
46506;BME280;32220;49.808;9.968;2023-02-13T21:26:26;100924.31;;;2.06;75.14
46506;BME280;32220;49.808;9.968;2023-02-13T21:28:55;100924.25;;;2.00;75.25
46506;BME280;32220;49.808;9.968;2023-02-13T21:31:26;100923.38;;;1.99;75.31
46506;BME280;32220;49.808;9.968;2023-02-13T21:33:56;100925.16;;;1.97;75.36
46506;BME280;32220;49.808;9.968;2023-02-13T21:36:24;100894.50;;;1.75;75.40
46506;BME280;32220;49.808;9.968;2023-02-13T21:38:53;100914.66;;;1.91;75.63
46506;BME280;32220;49.808;9.968;2023-02-13T21:41:21;100903.25;;;1.78;75.61
46506;BME280;32220;49.808;9.968;2023-02-13T21:43:50;100870.94;;;1.61;76.52
46506;BME280;32220;49.808;9.968;2023-02-13T21:46:20;100917.19;;;1.80;76.05
46506;BME280;32220;49.808;9.968;2023-02-13T21:48:51;100915.44;;;1.76;75.75
46506;BME280;32220;49.808;9.968;2023-02-13T21:51:20;100904.97;;;1.70;75.59
46506;BME280;32220;49.808;9.968;2023-02-13T21:53:49;100882.19;;;1.51;76.77
46506;BME280;32220;49.808;9.968;2023-02-13T21:56:18;100877.81;;;1.46;76.66
46506;BME280;32220;49.808;9.968;2023-02-13T21:58:47;100897.91;;;1.57;76.83
46506;BME280;32220;49.808;9.968;2023-02-13T22:01:18;100895.25;;;1.54;78.11
46506;BME280;32220;49.808;9.968;2023-02-13T22:03:46;100906.59;;;1.56;77.00
46506;BME280;32220;49.808;9.968;2023-02-13T22:06:16;100912.72;;;1.58;77.69
46506;BME280;32220;49.808;9.968;2023-02-13T22:08:44;100898.78;;;1.62;80.82
46506;BME280;32220;49.808;9.968;2023-02-13T22:11:12;100884.88;;;1.65;81.65
46506;BME280;32220;49.808;9.968;2023-02-13T22:13:40;100898.06;;;1.82;81.77
46506;BME280;32220;49.808;9.968;2023-02-13T22:16:12;100899.00;;;1.97;82.28
46506;BME280;32220;49.808;9.968;2023-02-13T22:18:42;100896.44;;;2.11;83.80